EPWR/WRO METAR and TAF weather

Enter ICAO airport designator
Station Type Date Time Source
EPWR METAR 2020/03/28 21:30 UTC NOAA

EPWR 282130Z 29008KT CAVOK 05/01 Q1014


Station Type Date Time Source
EPWR Decoded METAR 2020/03/28 21:30 UTC NOAA

Wroclaw Ii, Poland (EPWR) 51-06N 016-53E 121M
Mar 28, 2020 - 05:30 PM EDT / 2020.03.28 2130 UTC
Wind: from the WNW (290 degrees) at 9 MPH (8 KT):0
Visibility: greater than 7 mile(s):0
Temperature: 41 F (5 C)
Dew Point: 33 F (1 C)
Relative Humidity: 75%
Pressure (altimeter): 29.94 in. Hg (1014 hPa)
ob: EPWR 282130Z 29008KT CAVOK 05/01 Q1014
cycle: 21

Station Type Date Time Source
EPWR TAF 2020/03/28 21:37 UTC NOAA

TAF EPWR 282030Z 2821/2921 31011KT CAVOK
TEMPO 2910/2919 32015G28KT SHRA BKN025CB PROB30
TEMPO 2914/2919 35025G35KT SHSN BKN014CB

Example: see airport list